createdAt,value
2022-11-01T00:00:24.188Z,9.25
2022-11-01T00:03:27.189Z,9.45
2022-11-01T00:06:29.900Z,10.15
2022-11-01T00:09:33.544Z,9.93
2022-11-01T00:12:37.457Z,10.05
2022-11-01T00:15:40.493Z,9.80
2022-11-01T00:18:44.374Z,8.32
2022-11-01T00:21:47.420Z,7.82
2022-11-01T00:24:51.441Z,9.18
2022-11-01T00:27:57.140Z,9.02
2022-11-01T00:31:00.358Z,9.48
2022-11-01T00:34:05.792Z,8.48
2022-11-01T00:40:11.933Z,7.80
2022-11-01T00:43:14.911Z,7.70
2022-11-01T00:46:18.227Z,7.50
2022-11-01T00:49:21.003Z,8.00
2022-11-01T00:52:24.013Z,6.82
2022-11-01T00:55:26.735Z,7.55
2022-11-01T00:58:30.917Z,6.87
2022-11-01T01:01:33.848Z,7.53
2022-11-01T01:04:43.322Z,7.62
2022-11-01T01:07:46.090Z,6.87
2022-11-01T01:10:50.118Z,6.90
2022-11-01T01:13:52.729Z,7.62
2022-11-01T01:16:55.958Z,6.47
2022-11-01T01:19:58.736Z,6.87
2022-11-01T01:23:01.774Z,7.18
2022-11-01T01:26:09.102Z,6.55
2022-11-01T01:29:12.167Z,7.00
2022-11-01T01:32:17.025Z,6.57
2022-11-01T01:38:22.848Z,6.57
2022-11-01T01:41:44.792Z,6.32
2022-11-01T01:44:50.115Z,6.85
2022-11-01T01:47:54.714Z,6.35
2022-11-01T01:51:02.159Z,7.10
2022-11-01T01:54:05.427Z,6.40
2022-11-01T01:57:08.823Z,6.22
2022-11-01T02:00:12.842Z,5.45
2022-11-01T02:03:16.203Z,6.05
2022-11-01T02:06:21.384Z,6.40
2022-11-01T02:09:28.105Z,5.80
2022-11-01T02:12:36.582Z,5.90
2022-11-01T02:15:48.084Z,5.72
2022-11-01T02:19:03.495Z,6.28
2022-11-01T02:22:31.140Z,5.62
2022-11-01T02:26:23.819Z,6.20
2022-11-01T02:30:18.572Z,5.80
2022-11-01T02:33:28.748Z,6.47
2022-11-01T02:36:35.709Z,5.82
2022-11-01T02:39:41.590Z,6.22
2022-11-01T02:42:53.864Z,6.22
2022-11-01T02:45:57.587Z,5.47
2022-11-01T02:49:00.372Z,5.55
2022-11-01T02:52:04.530Z,5.60
2022-11-01T02:55:31.818Z,5.50
2022-11-01T02:58:35.749Z,5.78
2022-11-01T03:01:39.692Z,6.00
2022-11-01T03:04:43.076Z,6.17
2022-11-01T03:07:50.713Z,6.18
2022-11-01T03:11:05.588Z,6.07
2022-11-01T03:14:34.666Z,5.95
2022-11-01T03:17:45.212Z,5.35
2022-11-01T03:20:54.747Z,6.40
2022-11-01T03:24:05.458Z,6.60
2022-11-01T03:27:12.494Z,6.85
2022-11-01T03:30:15.573Z,6.80
2022-11-01T03:33:18.922Z,7.30
2022-11-01T03:36:24.825Z,5.95
2022-11-01T03:39:32.293Z,5.90
2022-11-01T03:42:36.697Z,6.70
2022-11-01T03:45:40.514Z,6.12
2022-11-01T03:48:43.689Z,5.75
2022-11-01T03:51:46.965Z,6.28
2022-11-01T03:54:50.054Z,5.93
2022-11-01T03:57:57.719Z,6.12
2022-11-01T04:01:00.853Z,6.07
2022-11-01T04:04:04.790Z,5.32
2022-11-01T04:07:07.808Z,6.07
2022-11-01T04:10:12.314Z,4.87
2022-11-01T04:13:15.092Z,5.68
2022-11-01T04:16:36.626Z,5.15
2022-11-01T04:19:57.936Z,5.30
2022-11-01T04:23:01.897Z,5.20
2022-11-01T04:26:05.944Z,5.68
2022-11-01T04:29:09.073Z,6.45
2022-11-01T04:32:11.792Z,6.03
2022-11-01T04:35:14.975Z,6.32
2022-11-01T04:38:17.739Z,6.57
2022-11-01T04:41:22.616Z,5.53
2022-11-01T04:44:25.340Z,7.20
2022-11-01T04:47:28.350Z,6.07
2022-11-01T04:50:31.131Z,6.40
2022-11-01T04:53:35.708Z,5.65
2022-11-01T04:56:38.424Z,5.55
2022-11-01T04:59:41.440Z,5.82
2022-11-01T05:02:44.490Z,5.50
2022-11-01T05:05:47.807Z,5.43
2022-11-01T05:08:50.556Z,5.47
2022-11-01T05:11:53.554Z,5.57
2022-11-01T05:14:57.013Z,5.97
2022-11-01T05:18:01.970Z,5.85
2022-11-01T05:21:04.740Z,5.72
2022-11-01T05:24:08.583Z,6.12
2022-11-01T05:27:11.572Z,6.25
2022-11-01T05:30:15.863Z,6.10
2022-11-01T05:33:18.734Z,6.20
2022-11-01T05:36:23.081Z,5.65
2022-11-01T05:39:25.812Z,5.60
2022-11-01T05:42:28.879Z,5.43
2022-11-01T05:45:31.697Z,6.18
2022-11-01T05:48:35.143Z,5.60
2022-11-01T05:51:39.311Z,6.50
2022-11-01T05:54:42.323Z,6.05
2022-11-01T05:57:45.169Z,6.05
2022-11-01T06:00:48.246Z,6.05
2022-11-01T06:03:51.241Z,5.97
2022-11-01T06:06:54.255Z,6.12
2022-11-01T06:09:58.112Z,6.03
2022-11-01T06:13:01.095Z,5.78
2022-11-01T06:16:05.919Z,6.80
2022-11-01T06:19:09.712Z,6.18
2022-11-01T06:22:13.044Z,6.78
2022-11-01T06:25:16.012Z,5.82
2022-11-01T06:28:19.022Z,7.20
2022-11-01T06:31:22.282Z,5.72
2022-11-01T06:34:25.288Z,6.97
2022-11-01T06:37:28.026Z,7.22
2022-11-01T06:40:31.064Z,6.32
2022-11-01T06:43:33.806Z,5.78
2022-11-01T06:46:36.802Z,6.47
2022-11-01T06:49:40.816Z,6.10
2022-11-01T06:52:43.868Z,5.77
2022-11-01T06:55:46.910Z,5.97
2022-11-01T06:58:50.658Z,5.62
2022-11-01T07:01:54.662Z,6.30
2022-11-01T07:04:57.892Z,6.50
2022-11-01T07:08:01.309Z,5.93
2022-11-01T07:11:04.681Z,6.62
2022-11-01T07:14:07.401Z,6.25
2022-11-01T07:17:10.466Z,6.18
2022-11-01T07:20:13.220Z,5.78
2022-11-01T07:23:17.148Z,5.85
2022-11-01T07:26:20.784Z,5.93
2022-11-01T07:29:23.799Z,5.43
2022-11-01T07:32:27.712Z,6.50
2022-11-01T07:35:30.891Z,5.67
2022-11-01T07:38:34.877Z,5.68
2022-11-01T07:41:37.899Z,4.57
2022-11-01T07:44:45.399Z,5.50
2022-11-01T07:47:51.195Z,6.62
2022-11-01T07:50:58.759Z,5.03
2022-11-01T07:54:02.722Z,5.37
2022-11-01T07:57:05.516Z,4.87
2022-11-01T08:00:11.928Z,5.35
2022-11-01T08:03:16.735Z,5.75
2022-11-01T08:06:19.792Z,5.20
2022-11-01T08:09:22.859Z,5.45
2022-11-01T08:12:25.893Z,4.93
2022-11-01T08:15:35.695Z,5.47
2022-11-01T08:18:38.818Z,5.45
2022-11-01T08:21:41.680Z,6.05
2022-11-01T08:24:44.690Z,5.72
2022-11-01T08:27:47.524Z,4.50
2022-11-01T08:30:50.841Z,5.15
2022-11-01T08:33:54.319Z,4.80
2022-11-01T08:36:58.665Z,4.82
2022-11-01T08:40:01.458Z,4.93
2022-11-01T08:43:04.790Z,5.12
2022-11-01T08:46:07.870Z,4.97
2022-11-01T08:49:11.761Z,5.10
2022-11-01T08:52:14.507Z,4.65
2022-11-01T08:55:17.637Z,4.50
2022-11-01T08:58:20.748Z,4.37
2022-11-01T09:01:27.166Z,5.32
2022-11-01T09:04:30.031Z,5.25
2022-11-01T09:07:36.806Z,5.07
2022-11-01T09:10:39.367Z,5.30
2022-11-01T09:13:42.940Z,5.15
2022-11-01T09:16:45.635Z,4.57
2022-11-01T09:19:48.841Z,5.35
2022-11-01T09:22:55.152Z,6.32
2022-11-01T09:26:05.545Z,8.27
2022-11-01T09:29:08.571Z,7.05
2022-11-01T09:32:12.196Z,7.05
2022-11-01T09:35:15.064Z,6.95
2022-11-01T09:38:18.255Z,6.60
2022-11-01T09:41:20.966Z,6.45
2022-11-01T09:44:28.133Z,6.87
2022-11-01T09:47:31.234Z,6.85
2022-11-01T09:50:37.881Z,7.32
2022-11-01T09:53:41.485Z,6.95
2022-11-01T09:56:51.882Z,7.40
2022-11-01T10:00:01.744Z,7.37
2022-11-01T10:03:33.699Z,6.62
2022-11-01T10:06:40.092Z,6.93
2022-11-01T10:09:57.178Z,6.65
2022-11-01T10:13:11.181Z,6.50
2022-11-01T10:16:24.201Z,6.95
2022-11-01T10:19:32.872Z,6.97
2022-11-01T10:22:37.572Z,7.20
2022-11-01T10:28:51.262Z,7.07
2022-11-01T10:31:55.381Z,6.62
2022-11-01T10:35:05.839Z,7.10
2022-11-01T10:38:30.285Z,6.82
2022-11-01T10:41:43.704Z,7.68
2022-11-01T10:44:54.797Z,7.60
2022-11-01T10:47:58.501Z,7.68
2022-11-01T10:51:04.139Z,7.22
2022-11-01T10:54:13.630Z,7.60
2022-11-01T10:57:49.497Z,6.78
2022-11-01T11:00:53.023Z,8.27
2022-11-01T11:03:59.591Z,7.80
2022-11-01T11:07:02.427Z,8.13
2022-11-01T11:10:19.552Z,7.68
2022-11-01T11:13:26.794Z,7.55
2022-11-01T11:16:40.008Z,7.10
2022-11-01T11:19:46.297Z,7.28
2022-11-01T11:22:49.256Z,7.45
2022-11-01T11:25:52.189Z,8.45
2022-11-01T11:28:56.555Z,7.62
2022-11-01T11:32:00.710Z,8.57
2022-11-01T11:35:18.404Z,8.82
2022-11-01T11:38:41.094Z,9.10
2022-11-01T11:41:47.279Z,9.23
2022-11-01T11:44:55.662Z,8.18
2022-11-01T11:48:16.235Z,9.25
2022-11-01T11:51:21.430Z,9.40
2022-11-01T11:54:25.254Z,9.15
2022-11-01T11:57:30.331Z,8.45
2022-11-01T12:00:35.933Z,8.93
2022-11-01T12:04:08.138Z,9.30
2022-11-01T12:07:32.273Z,10.50
2022-11-01T12:10:39.470Z,9.00
2022-11-01T12:14:05.018Z,8.80
2022-11-01T12:17:34.402Z,9.32
2022-11-01T12:20:39.189Z,8.88
2022-11-01T12:23:42.696Z,9.97
2022-11-01T12:26:46.122Z,9.68
2022-11-01T12:29:56.538Z,9.82
2022-11-01T12:33:05.169Z,9.45
2022-11-01T12:36:10.621Z,9.40
2022-11-01T12:39:25.815Z,9.55
2022-11-01T12:42:33.053Z,9.93
2022-11-01T12:45:47.459Z,9.27
2022-11-01T12:48:58.342Z,9.65
2022-11-01T12:55:21.770Z,11.07
2022-11-01T12:58:24.981Z,10.57
2022-11-01T13:01:53.052Z,10.15
2022-11-01T13:05:11.912Z,10.80
2022-11-01T13:08:17.811Z,10.75
2022-11-01T13:11:39.045Z,11.00
2022-11-01T13:15:06.700Z,10.82
2022-11-01T13:18:21.840Z,10.48
2022-11-01T13:24:42.523Z,10.90
2022-11-01T13:28:03.927Z,11.48
2022-11-01T13:31:30.414Z,11.40
2022-11-01T13:35:11.069Z,11.23
2022-11-01T13:38:26.083Z,12.35
2022-11-01T13:41:40.204Z,11.40
2022-11-01T13:44:53.340Z,13.20
2022-11-01T13:48:06.427Z,11.32
2022-11-01T13:51:47.180Z,11.50
2022-11-01T13:55:05.495Z,12.63
2022-11-01T13:58:09.819Z,13.55
2022-11-01T14:01:35.776Z,12.18
2022-11-01T14:04:39.028Z,12.05
2022-11-01T14:07:45.016Z,12.50
2022-11-01T14:10:49.579Z,11.43
2022-11-01T14:13:52.314Z,11.23
2022-11-01T14:17:33.583Z,11.70
2022-11-01T14:20:40.812Z,12.63
2022-11-01T14:23:43.854Z,12.70
2022-11-01T14:26:58.676Z,11.93
2022-11-01T14:30:02.379Z,12.10
2022-11-01T14:33:05.383Z,11.75
2022-11-01T14:36:13.120Z,12.55
2022-11-01T14:39:27.746Z,11.43
2022-11-01T14:42:37.694Z,11.35
2022-11-01T14:45:45.013Z,12.70
2022-11-01T14:49:04.895Z,12.57
2022-11-01T14:52:18.185Z,12.10
2022-11-01T14:55:25.529Z,12.30
2022-11-01T14:58:29.665Z,12.00
2022-11-01T15:01:32.918Z,12.20
2022-11-01T15:04:44.466Z,12.02
2022-11-01T15:07:53.701Z,11.85
2022-11-01T15:10:58.710Z,11.95
2022-11-01T15:14:05.280Z,11.50
2022-11-01T15:17:19.274Z,11.52
2022-11-01T15:20:23.617Z,11.77
2022-11-01T15:23:34.281Z,11.63
2022-11-01T15:26:38.008Z,11.05
2022-11-01T15:29:42.863Z,13.25
2022-11-01T15:36:08.861Z,13.55
2022-11-01T15:39:30.195Z,12.63
2022-11-01T15:42:34.879Z,13.27
2022-11-01T15:45:38.803Z,11.93
2022-11-01T15:48:41.879Z,12.93
2022-11-01T15:51:54.753Z,12.88
2022-11-01T15:55:23.268Z,13.15
2022-11-01T15:58:32.248Z,14.82
2022-11-01T16:01:37.792Z,16.02
2022-11-01T16:04:44.628Z,17.42
2022-11-01T16:07:47.637Z,16.45
2022-11-01T16:10:50.924Z,15.48
2022-11-01T16:14:08.608Z,16.00
2022-11-01T16:17:25.827Z,18.45
2022-11-01T16:20:43.369Z,18.17
2022-11-01T16:23:58.653Z,16.62
2022-11-01T16:27:05.056Z,16.70
2022-11-01T16:30:35.178Z,15.43
2022-11-01T16:33:45.761Z,15.45
2022-11-01T16:36:49.242Z,17.95
2022-11-01T16:39:53.203Z,17.02
2022-11-01T16:42:59.108Z,17.50
2022-11-01T16:46:04.595Z,17.60
2022-11-01T16:49:19.335Z,16.83
2022-11-01T16:52:23.111Z,17.85
2022-11-01T16:55:28.485Z,16.65
2022-11-01T16:58:34.543Z,17.67
2022-11-01T17:01:38.282Z,19.45
2022-11-01T17:04:42.611Z,17.10
2022-11-01T17:07:46.371Z,16.92
2022-11-01T17:10:50.241Z,16.70
2022-11-01T17:13:53.395Z,18.23
2022-11-01T17:16:56.932Z,17.80
2022-11-01T17:20:04.267Z,17.30
2022-11-01T17:23:16.241Z,15.77
2022-11-01T17:26:20.137Z,15.40
2022-11-01T17:29:23.433Z,16.87
2022-11-01T17:32:27.193Z,17.50
2022-11-01T17:35:33.674Z,15.90
2022-11-01T17:38:37.523Z,16.83
2022-11-01T17:41:40.709Z,17.55
2022-11-01T17:44:45.034Z,18.90
2022-11-01T17:47:49.279Z,19.33
2022-11-01T17:50:53.902Z,16.98
2022-11-01T17:53:57.548Z,17.83
2022-11-01T17:57:01.066Z,17.58
2022-11-01T18:00:05.218Z,18.35
2022-11-01T18:03:15.613Z,16.62
2022-11-01T18:06:19.427Z,17.60
2022-11-01T18:09:25.741Z,17.65
2022-11-01T18:12:40.644Z,15.30
2022-11-01T18:16:07.453Z,14.53
2022-11-01T18:19:28.601Z,15.93
2022-11-01T18:22:51.281Z,15.48
2022-11-01T18:25:55.068Z,13.80
2022-11-01T18:29:01.088Z,12.52
2022-11-01T18:32:14.791Z,11.73
2022-11-01T18:35:56.095Z,12.10
2022-11-01T18:39:21.512Z,11.02
2022-11-01T18:42:26.044Z,11.70
2022-11-01T18:45:44.242Z,10.40
2022-11-01T18:49:00.674Z,10.77
2022-11-01T18:52:12.215Z,11.02
2022-11-01T18:55:15.621Z,10.30
2022-11-01T18:58:29.338Z,12.00
2022-11-01T19:01:33.775Z,11.35
2022-11-01T19:04:39.753Z,10.57
2022-11-01T19:08:09.723Z,9.77
2022-11-01T19:11:12.970Z,10.27
2022-11-01T19:14:20.755Z,8.60
2022-11-01T19:17:28.635Z,9.60
2022-11-01T19:20:36.329Z,8.93
2022-11-01T19:23:41.351Z,9.10
2022-11-01T19:29:53.991Z,8.98
2022-11-01T19:33:33.787Z,9.32
2022-11-01T19:39:49.241Z,9.30
2022-11-01T19:42:53.349Z,10.00
2022-11-01T19:45:58.472Z,9.90
2022-11-01T19:49:02.795Z,9.15
2022-11-01T19:52:09.244Z,8.13
2022-11-01T19:55:38.347Z,9.13
2022-11-01T19:58:52.598Z,8.32
2022-11-01T20:01:56.607Z,9.40
2022-11-01T20:05:00.749Z,8.48
2022-11-01T20:08:22.359Z,9.15
2022-11-01T20:11:28.811Z,8.88
2022-11-01T20:14:38.247Z,8.35
2022-11-01T20:17:41.850Z,8.95
2022-11-01T20:20:47.758Z,9.38
2022-11-01T20:23:52.148Z,8.48
2022-11-01T20:26:55.605Z,9.98
2022-11-01T20:30:02.790Z,9.18
2022-11-01T20:33:06.137Z,9.32
2022-11-01T20:36:11.528Z,9.43
2022-11-01T20:39:18.082Z,9.73
2022-11-01T20:42:23.158Z,9.55
2022-11-01T20:45:27.552Z,9.73
2022-11-01T20:48:33.037Z,9.80
2022-11-01T20:51:36.456Z,9.27
2022-11-01T20:54:40.153Z,9.38
2022-11-01T20:57:44.073Z,8.38
2022-11-01T21:00:47.847Z,7.57
2022-11-01T21:03:55.250Z,9.50
2022-11-01T21:06:58.937Z,9.10
2022-11-01T21:10:02.077Z,8.30
2022-11-01T21:13:34.532Z,9.50
2022-11-01T21:16:39.473Z,8.55
2022-11-01T21:22:46.392Z,8.57
2022-11-01T21:25:51.389Z,8.32
2022-11-01T21:28:56.186Z,8.38
2022-11-01T21:32:00.255Z,7.85
2022-11-01T21:35:33.867Z,8.60
2022-11-01T21:38:41.366Z,8.07
2022-11-01T21:41:45.909Z,7.62
2022-11-01T21:44:49.498Z,8.38
2022-11-01T21:47:52.591Z,8.13
2022-11-01T21:50:57.033Z,9.13
2022-11-01T21:54:03.300Z,8.93
2022-11-01T21:57:09.626Z,8.85
2022-11-01T22:00:15.548Z,8.38
2022-11-01T22:03:18.818Z,8.50
2022-11-01T22:06:21.429Z,8.60
2022-11-01T22:09:24.728Z,9.38
2022-11-01T22:12:27.434Z,8.45
2022-11-01T22:15:30.523Z,10.10
2022-11-01T22:18:33.291Z,8.80
2022-11-01T22:21:36.539Z,7.70
2022-11-01T22:24:39.570Z,8.68
2022-11-01T22:27:42.555Z,9.25
2022-11-01T22:30:45.259Z,9.18
2022-11-01T22:33:52.147Z,8.85
2022-11-01T22:36:55.074Z,8.70
2022-11-01T22:39:59.313Z,8.98
2022-11-01T22:43:03.523Z,9.23
2022-11-01T22:46:19.774Z,8.82
2022-11-01T22:49:23.341Z,7.70
2022-11-01T22:52:39.598Z,8.07
2022-11-01T22:55:44.895Z,8.85
2022-11-01T22:58:47.945Z,9.07
2022-11-01T23:01:58.341Z,9.07
2022-11-01T23:05:07.197Z,12.35
2022-11-01T23:08:37.000Z,10.23
2022-11-01T23:11:58.719Z,9.57
2022-11-01T23:15:01.397Z,9.60
2022-11-01T23:18:27.832Z,10.23
2022-11-01T23:24:33.655Z,9.63
2022-11-01T23:27:36.633Z,9.23
2022-11-01T23:30:41.713Z,9.70
2022-11-01T23:33:46.371Z,9.55
2022-11-01T23:36:49.705Z,10.30
2022-11-01T23:39:52.875Z,9.38
2022-11-01T23:42:56.087Z,10.13
2022-11-01T23:46:00.645Z,10.15
2022-11-01T23:49:15.918Z,10.50
2022-11-01T23:52:39.847Z,9.70
2022-11-01T23:55:48.182Z,10.40
2022-11-01T23:59:01.179Z,9.73
